sensor_id;sensor_type;location;lat;lon;timestamp;P1;durP1;ratioP1;P2;durP2;ratioP2
21501;SDS011;27639;48.674;9.242;2022-12-18T00:01:31;59.72;;;30.58;;
21501;SDS011;27639;48.674;9.242;2022-12-18T00:04:01;52.20;;;29.83;;
21501;SDS011;27639;48.674;9.242;2022-12-18T00:06:31;49.05;;;28.85;;
21501;SDS011;27639;48.674;9.242;2022-12-18T00:09:00;52.13;;;27.25;;
21501;SDS011;27639;48.674;9.242;2022-12-18T00:11:28;50.53;;;26.83;;
21501;SDS011;27639;48.674;9.242;2022-12-18T00:13:56;53.78;;;27.23;;
21501;SDS011;27639;48.674;9.242;2022-12-18T00:16:23;51.88;;;27.13;;
21501;SDS011;27639;48.674;9.242;2022-12-18T00:18:50;55.92;;;28.13;;
21501;SDS011;27639;48.674;9.242;2022-12-18T00:21:18;52.65;;;26.45;;
21501;SDS011;27639;48.674;9.242;2022-12-18T00:23:45;51.10;;;28.63;;
21501;SDS011;27639;48.674;9.242;2022-12-18T00:26:16;50.10;;;28.48;;
21501;SDS011;27639;48.674;9.242;2022-12-18T00:28:47;51.72;;;27.60;;
21501;SDS011;27639;48.674;9.242;2022-12-18T00:31:14;47.97;;;26.60;;
21501;SDS011;27639;48.674;9.242;2022-12-18T00:33:42;50.45;;;27.67;;
21501;SDS011;27639;48.674;9.242;2022-12-18T00:36:12;49.88;;;28.10;;
21501;SDS011;27639;48.674;9.242;2022-12-18T00:38:39;53.35;;;27.05;;
21501;SDS011;27639;48.674;9.242;2022-12-18T00:41:05;53.78;;;28.55;;
21501;SDS011;27639;48.674;9.242;2022-12-18T00:43:34;46.53;;;26.10;;
21501;SDS011;27639;48.674;9.242;2022-12-18T00:46:00;51.58;;;27.83;;
21501;SDS011;27639;48.674;9.242;2022-12-18T00:48:26;46.83;;;26.55;;
21501;SDS011;27639;48.674;9.242;2022-12-18T00:50:51;47.72;;;26.13;;
21501;SDS011;27639;48.674;9.242;2022-12-18T00:53:17;48.65;;;27.00;;
21501;SDS011;27639;48.674;9.242;2022-12-18T00:55:43;52.90;;;27.67;;
21501;SDS011;27639;48.674;9.242;2022-12-18T00:58:10;50.10;;;26.80;;
21501;SDS011;27639;48.674;9.242;2022-12-18T01:00:36;52.03;;;28.20;;
21501;SDS011;27639;48.674;9.242;2022-12-18T01:03:03;50.70;;;28.48;;
21501;SDS011;27639;48.674;9.242;2022-12-18T01:05:28;52.13;;;26.85;;
21501;SDS011;27639;48.674;9.242;2022-12-18T01:07:55;49.45;;;26.17;;
21501;SDS011;27639;48.674;9.242;2022-12-18T01:10:21;49.97;;;26.95;;
21501;SDS011;27639;48.674;9.242;2022-12-18T01:12:48;52.05;;;27.52;;
21501;SDS011;27639;48.674;9.242;2022-12-18T01:15:15;51.17;;;26.83;;
21501;SDS011;27639;48.674;9.242;2022-12-18T01:17:41;53.30;;;26.90;;
21501;SDS011;27639;48.674;9.242;2022-12-18T01:20:08;51.17;;;26.48;;
21501;SDS011;27639;48.674;9.242;2022-12-18T01:22:35;48.90;;;27.02;;
21501;SDS011;27639;48.674;9.242;2022-12-18T01:25:01;48.42;;;26.90;;
21501;SDS011;27639;48.674;9.242;2022-12-18T01:27:26;45.10;;;25.85;;
21501;SDS011;27639;48.674;9.242;2022-12-18T01:29:52;46.17;;;25.55;;
21501;SDS011;27639;48.674;9.242;2022-12-18T01:32:18;45.00;;;25.27;;
21501;SDS011;27639;48.674;9.242;2022-12-18T01:34:43;41.33;;;23.83;;
21501;SDS011;27639;48.674;9.242;2022-12-18T01:37:09;48.65;;;24.42;;
21501;SDS011;27639;48.674;9.242;2022-12-18T01:39:35;46.63;;;25.02;;
21501;SDS011;27639;48.674;9.242;2022-12-18T01:42:05;46.30;;;24.10;;
21501;SDS011;27639;48.674;9.242;2022-12-18T01:47:34;43.33;;;23.20;;
21501;SDS011;27639;48.674;9.242;2022-12-18T01:50:02;43.90;;;24.48;;
21501;SDS011;27639;48.674;9.242;2022-12-18T01:52:36;43.90;;;25.20;;
21501;SDS011;27639;48.674;9.242;2022-12-18T01:55:07;43.78;;;23.92;;
21501;SDS011;27639;48.674;9.242;2022-12-18T01:57:34;41.08;;;24.85;;
21501;SDS011;27639;48.674;9.242;2022-12-18T02:00:02;42.70;;;23.00;;
21501;SDS011;27639;48.674;9.242;2022-12-18T02:02:33;45.70;;;22.90;;
21501;SDS011;27639;48.674;9.242;2022-12-18T02:04:59;40.33;;;23.10;;
21501;SDS011;27639;48.674;9.242;2022-12-18T02:10:27;47.45;;;24.98;;
21501;SDS011;27639;48.674;9.242;2022-12-18T02:18:17;45.92;;;24.63;;
21501;SDS011;27639;48.674;9.242;2022-12-18T02:23:55;45.35;;;24.73;;
21501;SDS011;27639;48.674;9.242;2022-12-18T02:26:40;44.00;;;24.05;;
21501;SDS011;27639;48.674;9.242;2022-12-18T02:29:20;45.92;;;24.33;;
21501;SDS011;27639;48.674;9.242;2022-12-18T02:32:00;43.38;;;24.60;;
21501;SDS011;27639;48.674;9.242;2022-12-18T02:34:30;43.63;;;24.85;;
21501;SDS011;27639;48.674;9.242;2022-12-18T02:37:00;42.55;;;24.25;;
21501;SDS011;27639;48.674;9.242;2022-12-18T02:39:29;47.70;;;24.70;;
21501;SDS011;27639;48.674;9.242;2022-12-18T02:41:57;40.70;;;24.52;;
21501;SDS011;27639;48.674;9.242;2022-12-18T02:44:24;44.92;;;25.15;;
21501;SDS011;27639;48.674;9.242;2022-12-18T02:46:50;46.17;;;25.52;;
21501;SDS011;27639;48.674;9.242;2022-12-18T02:49:39;42.63;;;24.00;;
21501;SDS011;27639;48.674;9.242;2022-12-18T03:05:51;41.60;;;23.23;;
21501;SDS011;27639;48.674;9.242;2022-12-18T03:08:23;43.88;;;23.35;;
21501;SDS011;27639;48.674;9.242;2022-12-18T03:10:54;46.35;;;24.60;;
21501;SDS011;27639;48.674;9.242;2022-12-18T03:13:30;42.13;;;24.15;;
21501;SDS011;27639;48.674;9.242;2022-12-18T03:16:00;45.67;;;23.00;;
21501;SDS011;27639;48.674;9.242;2022-12-18T03:18:33;43.83;;;23.48;;
21501;SDS011;27639;48.674;9.242;2022-12-18T03:21:05;41.33;;;23.35;;
21501;SDS011;27639;48.674;9.242;2022-12-18T03:23:34;41.72;;;22.02;;
21501;SDS011;27639;48.674;9.242;2022-12-18T03:26:05;43.13;;;21.80;;
21501;SDS011;27639;48.674;9.242;2022-12-18T03:28:35;41.30;;;21.40;;
21501;SDS011;27639;48.674;9.242;2022-12-18T03:31:05;35.85;;;20.23;;
21501;SDS011;27639;48.674;9.242;2022-12-18T03:33:35;38.55;;;22.02;;
21501;SDS011;27639;48.674;9.242;2022-12-18T03:36:05;44.13;;;23.05;;
21501;SDS011;27639;48.674;9.242;2022-12-18T03:38:31;38.13;;;21.40;;
21501;SDS011;27639;48.674;9.242;2022-12-18T03:49:09;43.97;;;21.75;;
21501;SDS011;27639;48.674;9.242;2022-12-18T03:51:43;41.28;;;21.92;;
21501;SDS011;27639;48.674;9.242;2022-12-18T03:54:18;39.55;;;21.73;;
21501;SDS011;27639;48.674;9.242;2022-12-18T03:56:46;38.60;;;21.35;;
21501;SDS011;27639;48.674;9.242;2022-12-18T04:01:48;40.38;;;19.67;;
21501;SDS011;27639;48.674;9.242;2022-12-18T04:04:16;36.97;;;20.63;;
21501;SDS011;27639;48.674;9.242;2022-12-18T04:06:43;36.20;;;20.40;;
21501;SDS011;27639;48.674;9.242;2022-12-18T04:09:11;36.75;;;19.92;;
21501;SDS011;27639;48.674;9.242;2022-12-18T04:11:37;41.83;;;21.55;;
21501;SDS011;27639;48.674;9.242;2022-12-18T04:14:03;36.53;;;19.65;;
21501;SDS011;27639;48.674;9.242;2022-12-18T04:16:29;39.70;;;21.67;;
21501;SDS011;27639;48.674;9.242;2022-12-18T04:18:54;38.45;;;20.23;;
21501;SDS011;27639;48.674;9.242;2022-12-18T04:21:20;38.00;;;18.90;;
21501;SDS011;27639;48.674;9.242;2022-12-18T04:23:46;36.58;;;20.67;;
21501;SDS011;27639;48.674;9.242;2022-12-18T04:26:11;31.90;;;18.50;;
21501;SDS011;27639;48.674;9.242;2022-12-18T04:28:37;36.00;;;18.67;;
21501;SDS011;27639;48.674;9.242;2022-12-18T04:31:03;39.40;;;21.58;;
21501;SDS011;27639;48.674;9.242;2022-12-18T04:33:28;39.72;;;21.05;;
21501;SDS011;27639;48.674;9.242;2022-12-18T04:35:54;35.65;;;21.20;;
21501;SDS011;27639;48.674;9.242;2022-12-18T04:38:20;37.58;;;19.20;;
21501;SDS011;27639;48.674;9.242;2022-12-18T04:40:45;39.17;;;20.60;;
21501;SDS011;27639;48.674;9.242;2022-12-18T04:43:11;40.83;;;21.45;;
21501;SDS011;27639;48.674;9.242;2022-12-18T04:45:37;36.35;;;20.23;;
21501;SDS011;27639;48.674;9.242;2022-12-18T04:48:03;39.42;;;20.65;;
21501;SDS011;27639;48.674;9.242;2022-12-18T04:50:29;37.42;;;20.75;;
21501;SDS011;27639;48.674;9.242;2022-12-18T04:52:55;35.33;;;20.33;;
21501;SDS011;27639;48.674;9.242;2022-12-18T04:55:21;37.95;;;20.13;;
21501;SDS011;27639;48.674;9.242;2022-12-18T04:57:49;35.50;;;19.20;;
21501;SDS011;27639;48.674;9.242;2022-12-18T05:00:15;35.92;;;19.83;;
21501;SDS011;27639;48.674;9.242;2022-12-18T05:02:41;33.83;;;20.65;;
21501;SDS011;27639;48.674;9.242;2022-12-18T05:05:07;38.47;;;20.10;;
21501;SDS011;27639;48.674;9.242;2022-12-18T05:07:33;41.03;;;21.23;;
21501;SDS011;27639;48.674;9.242;2022-12-18T05:09:58;37.22;;;20.98;;
21501;SDS011;27639;48.674;9.242;2022-12-18T05:12:24;37.60;;;20.95;;
21501;SDS011;27639;48.674;9.242;2022-12-18T05:14:50;38.17;;;20.95;;
21501;SDS011;27639;48.674;9.242;2022-12-18T05:17:15;36.75;;;20.33;;
21501;SDS011;27639;48.674;9.242;2022-12-18T05:19:41;39.58;;;21.00;;
21501;SDS011;27639;48.674;9.242;2022-12-18T05:22:07;34.88;;;20.50;;
21501;SDS011;27639;48.674;9.242;2022-12-18T05:24:32;35.15;;;18.10;;
21501;SDS011;27639;48.674;9.242;2022-12-18T05:26:58;36.45;;;20.50;;
21501;SDS011;27639;48.674;9.242;2022-12-18T05:29:24;36.08;;;20.05;;
21501;SDS011;27639;48.674;9.242;2022-12-18T05:31:49;33.65;;;18.77;;
21501;SDS011;27639;48.674;9.242;2022-12-18T05:34:15;36.03;;;18.98;;
21501;SDS011;27639;48.674;9.242;2022-12-18T05:36:41;35.00;;;18.05;;
21501;SDS011;27639;48.674;9.242;2022-12-18T05:39:06;36.63;;;20.30;;
21501;SDS011;27639;48.674;9.242;2022-12-18T05:41:32;35.83;;;20.38;;
21501;SDS011;27639;48.674;9.242;2022-12-18T05:43:58;37.35;;;20.52;;
21501;SDS011;27639;48.674;9.242;2022-12-18T05:46:24;35.47;;;19.90;;
21501;SDS011;27639;48.674;9.242;2022-12-18T05:48:51;36.40;;;18.92;;
21501;SDS011;27639;48.674;9.242;2022-12-18T05:51:18;35.10;;;18.92;;
21501;SDS011;27639;48.674;9.242;2022-12-18T05:53:45;35.03;;;17.92;;
21501;SDS011;27639;48.674;9.242;2022-12-18T05:56:14;33.00;;;19.63;;
21501;SDS011;27639;48.674;9.242;2022-12-18T05:58:42;37.88;;;20.10;;
21501;SDS011;27639;48.674;9.242;2022-12-18T06:01:09;36.60;;;20.35;;
21501;SDS011;27639;48.674;9.242;2022-12-18T06:03:35;37.17;;;20.38;;
21501;SDS011;27639;48.674;9.242;2022-12-18T06:06:01;38.35;;;20.52;;
21501;SDS011;27639;48.674;9.242;2022-12-18T06:08:27;35.90;;;19.98;;
21501;SDS011;27639;48.674;9.242;2022-12-18T06:10:53;37.05;;;19.95;;
21501;SDS011;27639;48.674;9.242;2022-12-18T06:13:19;34.30;;;19.45;;
21501;SDS011;27639;48.674;9.242;2022-12-18T06:15:44;38.78;;;20.40;;
21501;SDS011;27639;48.674;9.242;2022-12-18T06:18:10;37.53;;;20.92;;
21501;SDS011;27639;48.674;9.242;2022-12-18T06:20:37;35.45;;;19.85;;
21501;SDS011;27639;48.674;9.242;2022-12-18T06:23:04;33.13;;;19.65;;
21501;SDS011;27639;48.674;9.242;2022-12-18T06:25:31;34.83;;;20.58;;
21501;SDS011;27639;48.674;9.242;2022-12-18T06:27:57;40.30;;;21.08;;
21501;SDS011;27639;48.674;9.242;2022-12-18T06:30:23;37.05;;;20.30;;
21501;SDS011;27639;48.674;9.242;2022-12-18T06:32:49;38.50;;;21.30;;
21501;SDS011;27639;48.674;9.242;2022-12-18T06:35:15;38.05;;;20.80;;
21501;SDS011;27639;48.674;9.242;2022-12-18T06:37:41;34.45;;;19.70;;
21501;SDS011;27639;48.674;9.242;2022-12-18T06:40:06;37.80;;;20.85;;
21501;SDS011;27639;48.674;9.242;2022-12-18T06:42:32;37.85;;;22.58;;
21501;SDS011;27639;48.674;9.242;2022-12-18T06:44:58;38.28;;;21.83;;
21501;SDS011;27639;48.674;9.242;2022-12-18T06:47:23;36.83;;;22.23;;
21501;SDS011;27639;48.674;9.242;2022-12-18T06:49:49;36.97;;;21.30;;
21501;SDS011;27639;48.674;9.242;2022-12-18T06:52:18;40.55;;;22.17;;
21501;SDS011;27639;48.674;9.242;2022-12-18T06:54:43;37.60;;;21.75;;
21501;SDS011;27639;48.674;9.242;2022-12-18T06:57:09;37.78;;;21.13;;
21501;SDS011;27639;48.674;9.242;2022-12-18T06:59:34;35.42;;;20.88;;
21501;SDS011;27639;48.674;9.242;2022-12-18T07:02:00;36.45;;;20.10;;
21501;SDS011;27639;48.674;9.242;2022-12-18T07:04:29;37.67;;;21.73;;
21501;SDS011;27639;48.674;9.242;2022-12-18T07:06:55;34.65;;;20.98;;
21501;SDS011;27639;48.674;9.242;2022-12-18T07:09:20;40.35;;;22.00;;
21501;SDS011;27639;48.674;9.242;2022-12-18T07:11:46;38.95;;;21.85;;
21501;SDS011;27639;48.674;9.242;2022-12-18T07:14:11;40.08;;;21.92;;
21501;SDS011;27639;48.674;9.242;2022-12-18T07:16:37;49.55;;;25.92;;
21501;SDS011;27639;48.674;9.242;2022-12-18T07:19:03;41.70;;;21.45;;
21501;SDS011;27639;48.674;9.242;2022-12-18T07:21:28;42.42;;;23.67;;
21501;SDS011;27639;48.674;9.242;2022-12-18T07:23:54;40.92;;;24.30;;
21501;SDS011;27639;48.674;9.242;2022-12-18T07:26:20;43.50;;;24.65;;
21501;SDS011;27639;48.674;9.242;2022-12-18T07:28:47;40.75;;;23.85;;
21501;SDS011;27639;48.674;9.242;2022-12-18T07:31:14;37.85;;;22.98;;
21501;SDS011;27639;48.674;9.242;2022-12-18T07:33:42;40.50;;;23.23;;
21501;SDS011;27639;48.674;9.242;2022-12-18T07:36:08;41.42;;;24.27;;
21501;SDS011;27639;48.674;9.242;2022-12-18T07:38:35;44.90;;;27.30;;
21501;SDS011;27639;48.674;9.242;2022-12-18T07:41:01;47.92;;;28.48;;
21501;SDS011;27639;48.674;9.242;2022-12-18T07:43:28;49.15;;;32.47;;
21501;SDS011;27639;48.674;9.242;2022-12-18T07:45:53;43.20;;;26.73;;
21501;SDS011;27639;48.674;9.242;2022-12-18T07:48:19;46.65;;;28.65;;
21501;SDS011;27639;48.674;9.242;2022-12-18T07:50:45;39.50;;;23.77;;
21501;SDS011;27639;48.674;9.242;2022-12-18T07:53:10;43.47;;;25.55;;
21501;SDS011;27639;48.674;9.242;2022-12-18T07:55:36;40.47;;;22.77;;
21501;SDS011;27639;48.674;9.242;2022-12-18T07:58:02;41.85;;;23.40;;
21501;SDS011;27639;48.674;9.242;2022-12-18T08:00:28;38.30;;;22.70;;
21501;SDS011;27639;48.674;9.242;2022-12-18T08:02:54;37.63;;;23.10;;
21501;SDS011;27639;48.674;9.242;2022-12-18T08:05:20;39.28;;;24.73;;
21501;SDS011;27639;48.674;9.242;2022-12-18T08:07:46;40.45;;;24.33;;
21501;SDS011;27639;48.674;9.242;2022-12-18T08:10:12;41.20;;;25.27;;
21501;SDS011;27639;48.674;9.242;2022-12-18T08:12:38;42.25;;;24.92;;
21501;SDS011;27639;48.674;9.242;2022-12-18T08:15:04;51.08;;;28.73;;
21501;SDS011;27639;48.674;9.242;2022-12-18T08:17:30;62.85;;;35.72;;
21501;SDS011;27639;48.674;9.242;2022-12-18T08:19:56;48.13;;;29.42;;
21501;SDS011;27639;48.674;9.242;2022-12-18T08:22:21;42.15;;;27.20;;
21501;SDS011;27639;48.674;9.242;2022-12-18T08:24:47;46.92;;;28.58;;
21501;SDS011;27639;48.674;9.242;2022-12-18T08:27:12;50.75;;;29.73;;
21501;SDS011;27639;48.674;9.242;2022-12-18T08:29:38;45.67;;;26.13;;
21501;SDS011;27639;48.674;9.242;2022-12-18T08:32:04;43.92;;;25.50;;
21501;SDS011;27639;48.674;9.242;2022-12-18T08:34:29;43.50;;;25.63;;
21501;SDS011;27639;48.674;9.242;2022-12-18T08:36:55;43.38;;;25.92;;
21501;SDS011;27639;48.674;9.242;2022-12-18T08:39:20;41.00;;;25.30;;
21501;SDS011;27639;48.674;9.242;2022-12-18T08:41:46;43.63;;;26.40;;
21501;SDS011;27639;48.674;9.242;2022-12-18T08:44:32;46.33;;;26.00;;
21501;SDS011;27639;48.674;9.242;2022-12-18T08:47:04;44.97;;;26.33;;
21501;SDS011;27639;48.674;9.242;2022-12-18T08:49:30;44.08;;;26.08;;
21501;SDS011;27639;48.674;9.242;2022-12-18T08:51:56;44.03;;;27.33;;
21501;SDS011;27639;48.674;9.242;2022-12-18T08:54:24;54.22;;;34.60;;
21501;SDS011;27639;48.674;9.242;2022-12-18T08:56:51;49.22;;;30.95;;
21501;SDS011;27639;48.674;9.242;2022-12-18T08:59:17;47.72;;;30.73;;
21501;SDS011;27639;48.674;9.242;2022-12-18T09:01:44;49.97;;;29.48;;
21501;SDS011;27639;48.674;9.242;2022-12-18T09:04:10;45.80;;;28.80;;
21501;SDS011;27639;48.674;9.242;2022-12-18T09:06:36;46.78;;;26.73;;
21501;SDS011;27639;48.674;9.242;2022-12-18T09:09:02;46.58;;;28.25;;
21501;SDS011;27639;48.674;9.242;2022-12-18T09:11:29;45.67;;;27.58;;
21501;SDS011;27639;48.674;9.242;2022-12-18T09:13:56;47.00;;;29.85;;
21501;SDS011;27639;48.674;9.242;2022-12-18T09:16:23;50.40;;;28.58;;
21501;SDS011;27639;48.674;9.242;2022-12-18T09:18:50;49.45;;;27.92;;
21501;SDS011;27639;48.674;9.242;2022-12-18T09:21:19;47.38;;;28.00;;
21501;SDS011;27639;48.674;9.242;2022-12-18T09:23:51;47.97;;;28.60;;
21501;SDS011;27639;48.674;9.242;2022-12-18T09:26:19;51.25;;;29.50;;
21501;SDS011;27639;48.674;9.242;2022-12-18T09:28:45;50.70;;;28.13;;
21501;SDS011;27639;48.674;9.242;2022-12-18T09:31:11;49.95;;;30.08;;
21501;SDS011;27639;48.674;9.242;2022-12-18T09:33:40;52.72;;;30.02;;
21501;SDS011;27639;48.674;9.242;2022-12-18T09:36:06;50.85;;;30.55;;
21501;SDS011;27639;48.674;9.242;2022-12-18T09:38:34;50.97;;;30.85;;
21501;SDS011;27639;48.674;9.242;2022-12-18T09:41:05;51.45;;;31.35;;
21501;SDS011;27639;48.674;9.242;2022-12-18T09:43:46;51.15;;;31.77;;
21501;SDS011;27639;48.674;9.242;2022-12-18T09:46:33;44.30;;;29.50;;
21501;SDS011;27639;48.674;9.242;2022-12-18T09:49:11;51.17;;;31.85;;
21501;SDS011;27639;48.674;9.242;2022-12-18T09:51:40;48.78;;;31.45;;
21501;SDS011;27639;48.674;9.242;2022-12-18T09:54:22;46.58;;;28.90;;
21501;SDS011;27639;48.674;9.242;2022-12-18T09:56:56;43.33;;;29.02;;
21501;SDS011;27639;48.674;9.242;2022-12-18T09:59:37;47.28;;;29.85;;
21501;SDS011;27639;48.674;9.242;2022-12-18T10:02:13;45.47;;;31.73;;
21501;SDS011;27639;48.674;9.242;2022-12-18T10:04:47;49.88;;;31.05;;
21501;SDS011;27639;48.674;9.242;2022-12-18T10:10:19;54.78;;;33.83;;
21501;SDS011;27639;48.674;9.242;2022-12-18T10:13:01;49.38;;;32.38;;
21501;SDS011;27639;48.674;9.242;2022-12-18T10:15:53;47.65;;;30.88;;
21501;SDS011;27639;48.674;9.242;2022-12-18T10:21:19;46.13;;;30.88;;
21501;SDS011;27639;48.674;9.242;2022-12-18T10:26:41;51.65;;;32.22;;
21501;SDS011;27639;48.674;9.242;2022-12-18T10:29:09;49.95;;;33.63;;
21501;SDS011;27639;48.674;9.242;2022-12-18T10:31:38;50.10;;;33.03;;
21501;SDS011;27639;48.674;9.242;2022-12-18T10:34:03;50.85;;;31.33;;
21501;SDS011;27639;48.674;9.242;2022-12-18T10:36:29;50.97;;;33.03;;
21501;SDS011;27639;48.674;9.242;2022-12-18T10:39:03;52.40;;;33.03;;
21501;SDS011;27639;48.674;9.242;2022-12-18T10:41:44;47.67;;;32.22;;
21501;SDS011;27639;48.674;9.242;2022-12-18T10:44:15;55.83;;;35.05;;
21501;SDS011;27639;48.674;9.242;2022-12-18T10:46:46;52.40;;;35.17;;
21501;SDS011;27639;48.674;9.242;2022-12-18T10:51:51;50.30;;;31.02;;
21501;SDS011;27639;48.674;9.242;2022-12-18T10:54:29;50.70;;;31.63;;
21501;SDS011;27639;48.674;9.242;2022-12-18T10:57:13;48.97;;;32.22;;
21501;SDS011;27639;48.674;9.242;2022-12-18T10:59:55;48.38;;;32.30;;
21501;SDS011;27639;48.674;9.242;2022-12-18T11:02:26;50.40;;;30.77;;
21501;SDS011;27639;48.674;9.242;2022-12-18T11:04:52;48.50;;;30.10;;
21501;SDS011;27639;48.674;9.242;2022-12-18T11:07:18;50.50;;;30.90;;
21501;SDS011;27639;48.674;9.242;2022-12-18T11:09:43;51.17;;;31.45;;
21501;SDS011;27639;48.674;9.242;2022-12-18T11:12:27;50.22;;;31.45;;
21501;SDS011;27639;48.674;9.242;2022-12-18T11:14:54;45.78;;;29.98;;
21501;SDS011;27639;48.674;9.242;2022-12-18T11:17:28;50.17;;;30.80;;
21501;SDS011;27639;48.674;9.242;2022-12-18T11:19:56;52.88;;;32.35;;
21501;SDS011;27639;48.674;9.242;2022-12-18T11:25:03;48.30;;;30.15;;
21501;SDS011;27639;48.674;9.242;2022-12-18T11:27:31;47.97;;;30.83;;
21501;SDS011;27639;48.674;9.242;2022-12-18T11:30:08;49.80;;;30.05;;
21501;SDS011;27639;48.674;9.242;2022-12-18T11:32:45;46.60;;;28.00;;
21501;SDS011;27639;48.674;9.242;2022-12-18T11:35:17;43.63;;;27.45;;
21501;SDS011;27639;48.674;9.242;2022-12-18T11:38:03;48.15;;;28.63;;
21501;SDS011;27639;48.674;9.242;2022-12-18T11:40:43;49.00;;;29.40;;
21501;SDS011;27639;48.674;9.242;2022-12-18T11:46:10;49.63;;;30.23;;
21501;SDS011;27639;48.674;9.242;2022-12-18T11:48:48;47.38;;;29.05;;
21501;SDS011;27639;48.674;9.242;2022-12-18T11:51:28;50.63;;;31.08;;
21501;SDS011;27639;48.674;9.242;2022-12-18T11:54:00;46.05;;;28.83;;
21501;SDS011;27639;48.674;9.242;2022-12-18T11:56:33;46.67;;;29.10;;
21501;SDS011;27639;48.674;9.242;2022-12-18T12:16:44;40.13;;;24.67;;
21501;SDS011;27639;48.674;9.242;2022-12-18T12:22:13;42.53;;;25.83;;
21501;SDS011;27639;48.674;9.242;2022-12-18T12:28:07;37.05;;;22.08;;
21501;SDS011;27639;48.674;9.242;2022-12-18T12:31:02;40.45;;;24.58;;
21501;SDS011;27639;48.674;9.242;2022-12-18T12:33:37;41.97;;;26.52;;
21501;SDS011;27639;48.674;9.242;2022-12-18T12:38:54;48.70;;;29.17;;
21501;SDS011;27639;48.674;9.242;2022-12-18T12:41:23;44.55;;;26.40;;
21501;SDS011;27639;48.674;9.242;2022-12-18T12:44:13;44.28;;;26.77;;
21501;SDS011;27639;48.674;9.242;2022-12-18T12:46:43;40.15;;;25.00;;
21501;SDS011;27639;48.674;9.242;2022-12-18T12:49:13;42.58;;;26.83;;
21501;SDS011;27639;48.674;9.242;2022-12-18T12:54:16;45.10;;;26.85;;
21501;SDS011;27639;48.674;9.242;2022-12-18T12:59:16;41.00;;;26.58;;
21501;SDS011;27639;48.674;9.242;2022-12-18T13:02:29;42.10;;;26.35;;
21501;SDS011;27639;48.674;9.242;2022-12-18T13:04:57;41.60;;;24.33;;
21501;SDS011;27639;48.674;9.242;2022-12-18T13:07:40;40.97;;;25.48;;
21501;SDS011;27639;48.674;9.242;2022-12-18T13:12:50;41.15;;;25.83;;
21501;SDS011;27639;48.674;9.242;2022-12-18T13:20:33;45.40;;;26.55;;
21501;SDS011;27639;48.674;9.242;2022-12-18T13:23:01;42.45;;;27.35;;
21501;SDS011;27639;48.674;9.242;2022-12-18T13:25:45;42.05;;;25.38;;
21501;SDS011;27639;48.674;9.242;2022-12-18T13:30:42;43.40;;;25.95;;
21501;SDS011;27639;48.674;9.242;2022-12-18T13:38:25;41.47;;;25.75;;
21501;SDS011;27639;48.674;9.242;2022-12-18T13:41:00;43.92;;;27.13;;
21501;SDS011;27639;48.674;9.242;2022-12-18T13:43:29;44.97;;;28.67;;
21501;SDS011;27639;48.674;9.242;2022-12-18T13:48:55;47.45;;;30.00;;
21501;SDS011;27639;48.674;9.242;2022-12-18T13:51:26;47.17;;;29.85;;
21501;SDS011;27639;48.674;9.242;2022-12-18T13:53:59;47.03;;;28.85;;
21501;SDS011;27639;48.674;9.242;2022-12-18T13:56:28;45.60;;;27.67;;
21501;SDS011;27639;48.674;9.242;2022-12-18T14:02:13;46.75;;;28.02;;
21501;SDS011;27639;48.674;9.242;2022-12-18T14:04:44;43.63;;;27.45;;
21501;SDS011;27639;48.674;9.242;2022-12-18T14:07:13;45.25;;;27.27;;
21501;SDS011;27639;48.674;9.242;2022-12-18T14:09:53;44.97;;;27.63;;
21501;SDS011;27639;48.674;9.242;2022-12-18T14:12:25;46.15;;;27.95;;
21501;SDS011;27639;48.674;9.242;2022-12-18T14:20:47;43.88;;;25.27;;
21501;SDS011;27639;48.674;9.242;2022-12-18T14:23:34;45.30;;;26.52;;
21501;SDS011;27639;48.674;9.242;2022-12-18T14:26:02;44.55;;;27.77;;
21501;SDS011;27639;48.674;9.242;2022-12-18T14:28:49;58.55;;;35.53;;
21501;SDS011;27639;48.674;9.242;2022-12-18T14:31:19;56.35;;;37.17;;
21501;SDS011;27639;48.674;9.242;2022-12-18T14:33:46;58.45;;;35.83;;
21501;SDS011;27639;48.674;9.242;2022-12-18T14:36:13;56.72;;;35.80;;
21501;SDS011;27639;48.674;9.242;2022-12-18T14:38:41;54.72;;;35.15;;
21501;SDS011;27639;48.674;9.242;2022-12-18T14:41:11;52.50;;;31.33;;
21501;SDS011;27639;48.674;9.242;2022-12-18T14:43:39;49.70;;;30.33;;
21501;SDS011;27639;48.674;9.242;2022-12-18T14:46:25;53.13;;;32.30;;
21501;SDS011;27639;48.674;9.242;2022-12-18T14:48:55;51.70;;;32.28;;
21501;SDS011;27639;48.674;9.242;2022-12-18T14:51:31;58.55;;;34.35;;
21501;SDS011;27639;48.674;9.242;2022-12-18T14:54:02;55.42;;;31.25;;
21501;SDS011;27639;48.674;9.242;2022-12-18T14:56:36;53.17;;;32.05;;
21501;SDS011;27639;48.674;9.242;2022-12-18T14:59:18;49.85;;;31.05;;
21501;SDS011;27639;48.674;9.242;2022-12-18T15:02:04;53.30;;;30.88;;
21501;SDS011;27639;48.674;9.242;2022-12-18T15:04:43;52.92;;;32.15;;
21501;SDS011;27639;48.674;9.242;2022-12-18T15:07:22;54.42;;;31.58;;
21501;SDS011;27639;48.674;9.242;2022-12-18T15:20:38;53.03;;;31.85;;
21501;SDS011;27639;48.674;9.242;2022-12-18T15:23:19;55.47;;;31.30;;
21501;SDS011;27639;48.674;9.242;2022-12-18T15:25:48;52.40;;;31.65;;
21501;SDS011;27639;48.674;9.242;2022-12-18T15:28:25;58.75;;;33.78;;
21501;SDS011;27639;48.674;9.242;2022-12-18T15:33:40;46.33;;;26.42;;
21501;SDS011;27639;48.674;9.242;2022-12-18T15:36:11;40.83;;;26.15;;
21501;SDS011;27639;48.674;9.242;2022-12-18T15:38:38;44.40;;;25.80;;
21501;SDS011;27639;48.674;9.242;2022-12-18T15:41:13;43.30;;;26.75;;
21501;SDS011;27639;48.674;9.242;2022-12-18T15:43:40;43.90;;;25.10;;
21501;SDS011;27639;48.674;9.242;2022-12-18T15:46:08;45.47;;;27.88;;
21501;SDS011;27639;48.674;9.242;2022-12-18T15:48:43;48.15;;;28.08;;
21501;SDS011;27639;48.674;9.242;2022-12-18T15:51:14;45.92;;;26.00;;
21501;SDS011;27639;48.674;9.242;2022-12-18T15:54:01;46.30;;;28.52;;
21501;SDS011;27639;48.674;9.242;2022-12-18T15:56:28;51.00;;;31.63;;
21501;SDS011;27639;48.674;9.242;2022-12-18T15:59:14;49.83;;;29.77;;
21501;SDS011;27639;48.674;9.242;2022-12-18T16:01:48;48.22;;;30.63;;
21501;SDS011;27639;48.674;9.242;2022-12-18T16:04:16;50.13;;;31.33;;
21501;SDS011;27639;48.674;9.242;2022-12-18T16:06:45;52.55;;;32.90;;
21501;SDS011;27639;48.674;9.242;2022-12-18T16:09:11;50.78;;;33.05;;
21501;SDS011;27639;48.674;9.242;2022-12-18T16:11:37;49.33;;;33.13;;
21501;SDS011;27639;48.674;9.242;2022-12-18T16:14:26;52.45;;;32.15;;
21501;SDS011;27639;48.674;9.242;2022-12-18T16:16:57;52.30;;;31.65;;
21501;SDS011;27639;48.674;9.242;2022-12-18T16:19:27;49.30;;;30.52;;
21501;SDS011;27639;48.674;9.242;2022-12-18T16:21:55;51.88;;;29.83;;
21501;SDS011;27639;48.674;9.242;2022-12-18T16:24:23;47.55;;;28.85;;
21501;SDS011;27639;48.674;9.242;2022-12-18T16:26:53;45.67;;;29.77;;
21501;SDS011;27639;48.674;9.242;2022-12-18T16:29:24;50.97;;;30.17;;
21501;SDS011;27639;48.674;9.242;2022-12-18T16:31:55;48.35;;;30.90;;
21501;SDS011;27639;48.674;9.242;2022-12-18T16:34:31;52.42;;;29.73;;
21501;SDS011;27639;48.674;9.242;2022-12-18T16:36:59;44.72;;;28.77;;
21501;SDS011;27639;48.674;9.242;2022-12-18T16:39:27;48.90;;;29.85;;
21501;SDS011;27639;48.674;9.242;2022-12-18T16:41:55;49.35;;;29.77;;
21501;SDS011;27639;48.674;9.242;2022-12-18T16:44:20;48.40;;;30.17;;